Time;durP1;ratioP1;P1;durP2;ratioP2;P2;SDS_P1;SDS_P2;PMS_P1;PMS_P2;Temp;Humidity;BMP_temperature;BMP_pressure;BME280_temperature;BME280_humidity;BME280_pressure;Samples;Min_cycle;Max_cycle;Signal;HPM_P1;HPM_P2
2021/06/25 00:01:50;;;;;;;1.10;0.80;;;19.80;75.90;;;;;;10162787;28;20224;-53
2021/06/25 00:06:41;;;;;;;3.33;0.95;;;19.70;76.20;;;;;;10157265;28;20023;-57
2021/06/25 00:11:31;;;;;;;1.00;0.70;;;19.60;76.40;;;;;;10148862;28;20411;-58
2021/06/25 00:16:22;;;;;;;2.33;0.90;;;19.60;76.40;;;;;;10152996;28;20426;-58
2021/06/25 00:21:13;;;;;;;3.72;1.27;;;19.70;76.50;;;;;;10147503;28;20534;-56
2021/06/25 00:26:04;;;;;;;1.50;0.93;;;19.60;77.00;;;;;;10159473;28;20144;-54
2021/06/25 00:30:55;;;;;;;2.40;1.05;;;19.50;77.40;;;;;;10124104;28;20044;-52
2021/06/25 00:35:46;;;;;;;1.38;1.00;;;19.60;77.40;;;;;;10148857;28;20285;-55
2021/06/25 00:40:36;;;;;;;8.68;2.15;;;19.60;77.50;;;;;;10161600;28;20050;-53
2021/06/25 00:45:28;;;;;;;1.30;1.20;;;19.50;77.90;;;;;;10157676;28;20483;-54
2021/06/25 00:50:24;;;;;;;1.98;0.80;;;19.20;78.70;;;;;;10151926;28;20051;-53
2021/06/25 00:55:15;;;;;;;1.40;1.10;;;19.20;78.90;;;;;;10150561;28;20059;-56
2021/06/25 01:00:07;;;;;;;1.48;0.77;;;19.10;79.10;;;;;;10161186;28;20056;-55
2021/06/25 01:04:57;;;;;;;1.95;1.08;;;19.00;79.60;;;;;;10157860;28;20034;-54
2021/06/25 01:09:49;;;;;;;2.65;1.15;;;19.10;79.60;;;;;;10162043;28;20538;-53
2021/06/25 01:14:40;;;;;;;2.30;1.65;;;19.10;79.60;;;;;;10147773;28;20441;-54
2021/06/25 01:19:31;;;;;;;2.95;1.20;;;19.10;79.50;;;;;;10168264;28;20025;-53
2021/06/25 01:24:21;;;;;;;1.52;1.10;;;19.10;79.70;;;;;;10173065;28;20159;-56
2021/06/25 01:29:12;;;;;;;1.20;1.08;;;19.20;79.40;;;;;;10161545;28;20111;-52
2021/06/25 01:34:05;;;;;;;1.70;1.05;;;19.10;79.80;;;;;;10161720;28;20040;-56
2021/06/25 01:38:56;;;;;;;1.50;1.13;;;19.00;80.30;;;;;;10154076;28;20020;-54
2021/06/25 01:43:48;;;;;;;1.70;1.20;;;19.10;80.20;;;;;;10169290;28;20598;-50
2021/06/25 01:48:39;;;;;;;2.97;1.88;;;19.10;80.40;;;;;;10161875;28;20020;-56
2021/06/25 01:53:30;;;;;;;1.67;1.10;;;19.10;80.30;;;;;;10160142;28;20086;-55
2021/06/25 01:58:24;;;;;;;2.20;0.93;;;19.10;80.40;;;;;;10160038;28;20048;-54
2021/06/25 02:03:14;;;;;;;3.08;1.77;;;19.00;81.10;;;;;;10150604;28;20032;-56
2021/06/25 02:08:05;;;;;;;3.78;1.83;;;19.10;80.80;;;;;;10164781;28;20031;-54
2021/06/25 02:12:56;;;;;;;3.58;1.45;;;19.10;80.90;;;;;;10159868;28;20043;-56
2021/06/25 02:17:46;;;;;;;2.42;1.67;;;19.10;80.80;;;;;;10159306;28;20108;-55
2021/06/25 02:22:38;;;;;;;2.83;1.63;;;19.10;81.00;;;;;;10137720;28;20032;-54
2021/06/25 02:27:28;;;;;;;2.35;1.48;;;18.80;81.90;;;;;;10164394;28;20025;-54
2021/06/25 02:32:19;;;;;;;2.63;1.65;;;18.80;81.90;;;;;;10159337;28;20052;-51
2021/06/25 02:37:10;;;;;;;2.90;1.85;;;18.80;82.00;;;;;;10155577;28;20024;-54
2021/06/25 02:42:00;;;;;;;3.35;1.95;;;18.80;82.10;;;;;;10154057;28;20460;-56
2021/06/25 02:46:51;;;;;;;3.40;1.58;;;18.80;82.10;;;;;;10182490;28;20074;-54
2021/06/25 02:51:44;;;;;;;3.85;2.20;;;18.90;81.90;;;;;;10161765;28;20036;-52
2021/06/25 02:56:34;;;;;;;5.30;1.88;;;18.80;82.10;;;;;;10159525;28;20510;-55
2021/06/25 03:01:25;;;;;;;2.03;1.65;;;18.80;82.10;;;;;;10159579;28;20039;-55
2021/06/25 03:06:16;;;;;;;3.97;2.42;;;18.80;82.10;;;;;;10164392;28;20097;-56
2021/06/25 03:11:06;;;;;;;4.60;2.28;;;18.70;82.50;;;;;;10144477;28;20123;-54
2021/06/25 03:15:57;;;;;;;4.10;2.97;;;18.80;82.80;;;;;;10156737;28;20047;-53
2021/06/25 03:20:48;;;;;;;5.00;3.33;;;18.80;82.70;;;;;;10150848;28;20032;-55
2021/06/25 03:25:39;;;;;;;7.20;3.58;;;18.90;82.50;;;;;;10157799;28;20111;-52
2021/06/25 03:30:30;;;;;;;5.70;3.15;;;18.80;82.50;;;;;;10163470;28;20621;-56
2021/06/25 03:35:21;;;;;;;5.50;3.22;;;18.90;82.60;;;;;;10157354;28;20059;-52
2021/06/25 03:40:15;;;;;;;6.30;3.78;;;18.70;82.80;;;;;;10162489;28;20055;-53
2021/06/25 03:45:07;;;;;;;6.28;4.30;;;18.80;82.90;;;;;;10150193;28;20107;-53
2021/06/25 03:49:58;;;;;;;6.65;4.32;;;18.70;82.80;;;;;;10158994;28;20039;-54
2021/06/25 03:54:49;;;;;;;9.15;4.68;;;18.70;83.10;;;;;;10159720;28;20032;-53
2021/06/25 03:59:40;;;;;;;6.18;4.30;;;18.80;83.00;;;;;;10146576;28;20394;-52
2021/06/25 04:04:30;;;;;;;6.28;3.90;;;18.70;83.20;;;;;;10148303;28;20025;-52
2021/06/25 04:09:21;;;;;;;5.13;3.33;;;18.60;83.30;;;;;;10148372;28;20243;-53
2021/06/25 04:14:12;;;;;;;5.65;3.92;;;18.60;83.40;;;;;;10172364;28;20094;-51
2021/06/25 04:19:02;;;;;;;7.18;4.00;;;18.50;83.40;;;;;;10161270;28;20028;-54
2021/06/25 04:23:53;;;;;;;10.32;4.32;;;18.50;83.10;;;;;;10151312;28;20086;-54
2021/06/25 04:28:44;;;;;;;8.35;3.95;;;18.60;82.90;;;;;;10146563;28;20024;-54
2021/06/25 04:33:35;;;;;;;8.70;4.43;;;18.60;83.00;;;;;;10158062;28;20117;-54
2021/06/25 04:38:26;;;;;;;6.47;4.15;;;18.50;83.20;;;;;;10158612;28;20088;-56
2021/06/25 04:43:17;;;;;;;8.55;4.78;;;18.70;83.30;;;;;;10155042;28;20039;-55
2021/06/25 04:48:13;;;;;;;8.48;4.43;;;18.60;83.10;;;;;;10149445;28;20040;-54
2021/06/25 04:53:04;;;;;;;6.70;4.25;;;18.70;83.00;;;;;;10146342;28;20044;-51
2021/06/25 04:57:56;;;;;;;5.60;3.97;;;18.70;82.90;;;;;;10164312;28;20040;-53
2021/06/25 05:02:47;;;;;;;8.13;3.83;;;18.60;83.40;;;;;;10128950;28;20317;-55
2021/06/25 05:07:38;;;;;;;6.65;4.45;;;18.60;83.20;;;;;;10158088;28;20521;-51
2021/06/25 05:12:28;;;;;;;6.72;3.63;;;18.60;83.10;;;;;;10138919;28;20036;-53
2021/06/25 05:17:19;;;;;;;5.43;3.45;;;18.50;83.40;;;;;;10177514;28;20028;-54
2021/06/25 05:22:10;;;;;;;3.63;2.58;;;18.60;83.80;;;;;;10164767;28;20066;-55
2021/06/25 05:27:00;;;;;;;4.70;3.58;;;18.60;82.90;;;;;;10163907;28;20024;-56
2021/06/25 05:31:51;;;;;;;6.80;4.10;;;18.50;83.00;;;;;;10161731;28;20056;-53
2021/06/25 05:36:42;;;;;;;5.43;3.42;;;18.40;83.10;;;;;;10169931;28;20024;-55
2021/06/25 05:41:32;;;;;;;5.70;3.33;;;18.50;83.00;;;;;;10159538;28;20032;-55
2021/06/25 05:46:23;;;;;;;5.90;3.88;;;18.60;82.50;;;;;;10160496;28;20212;-55
2021/06/25 05:51:14;;;;;;;6.30;3.75;;;18.50;82.90;;;;;;10142972;28;20028;-54
2021/06/25 05:56:06;;;;;;;7.53;3.70;;;18.60;82.60;;;;;;10158186;28;20054;-52
2021/06/25 06:00:57;;;;;;;7.68;4.22;;;18.40;83.00;;;;;;10166019;28;20115;-57
2021/06/25 06:05:47;;;;;;;6.25;4.25;;;18.40;83.10;;;;;;10164117;28;20024;-54
2021/06/25 06:10:38;;;;;;;8.35;4.28;;;18.20;83.50;;;;;;10166521;28;20028;-57
2021/06/25 06:15:29;;;;;;;6.95;3.58;;;18.20;83.40;;;;;;10156469;28;20046;-54
2021/06/25 06:20:25;;;;;;;6.72;4.80;;;18.30;83.40;;;;;;10168676;28;20020;-53
2021/06/25 06:31:26;;;;;;;5.05;3.33;;;18.10;84.10;;;;;;10159279;28;20120;-51
2021/06/25 06:35:45;;;;;;;5.13;3.13;;;18.00;84.30;;;;;;10142684;28;20046;-52
2021/06/25 06:40:35;;;;;;;4.25;2.97;;;17.90;84.10;;;;;;10153839;28;20026;-53
2021/06/25 06:45:26;;;;;;;8.40;3.20;;;17.80;84.50;;;;;;10163902;28;20059;-56
2021/06/25 06:50:17;;;;;;;4.85;2.95;;;17.90;84.30;;;;;;10160989;28;20286;-55
2021/06/25 06:55:09;;;;;;;6.65;3.33;;;17.80;84.50;;;;;;10160546;28;20589;-54
2021/06/25 07:00:01;;;;;;;5.80;3.03;;;17.90;84.60;;;;;;10153524;28;20039;-54
2021/06/25 07:04:51;;;;;;;6.95;3.15;;;18.00;84.40;;;;;;10155770;28;20363;-57
2021/06/25 07:09:42;;;;;;;7.47;4.20;;;18.00;84.50;;;;;;10172016;28;20086;-57
2021/06/25 07:14:32;;;;;;;4.97;3.47;;;18.10;84.50;;;;;;10155230;28;20040;-58
2021/06/25 07:19:23;;;;;;;5.75;3.88;;;18.10;84.50;;;;;;10153612;28;20031;-56
2021/06/25 07:24:15;;;;;;;8.43;4.30;;;18.20;84.50;;;;;;10145530;28;20058;-55
2021/06/25 07:29:05;;;;;;;8.10;4.32;;;18.30;84.20;;;;;;10161630;28;20032;-53
2021/06/25 07:33:56;;;;;;;5.50;4.07;;;18.40;84.20;;;;;;10159132;28;20099;-55
2021/06/25 07:38:47;;;;;;;11.13;4.30;;;18.40;84.30;;;;;;10141567;28;20024;-52
2021/06/25 07:43:38;;;;;;;7.57;4.10;;;18.40;84.40;;;;;;10152848;28;20040;-53
2021/06/25 07:48:28;;;;;;;11.50;4.82;;;18.40;84.50;;;;;;10166662;28;20161;-55
2021/06/25 07:53:19;;;;;;;11.43;4.75;;;18.60;84.30;;;;;;10159218;28;20047;-56
2021/06/25 07:58:11;;;;;;;10.85;4.30;;;18.40;84.50;;;;;;10154533;28;20039;-54
2021/06/25 08:03:03;;;;;;;6.22;4.22;;;18.60;84.40;;;;;;10151240;28;20541;-55
2021/06/25 08:07:54;;;;;;;7.60;4.25;;;18.70;84.10;;;;;;10151643;28;20470;-51
2021/06/25 08:12:44;;;;;;;8.50;4.18;;;18.60;84.20;;;;;;10163053;28;20102;-51
2021/06/25 08:17:35;;;;;;;9.20;5.20;;;18.50;84.60;;;;;;10156893;28;20028;-53
2021/06/25 08:22:25;;;;;;;8.63;5.03;;;18.50;84.60;;;;;;10140221;28;20051;-50
2021/06/25 08:27:16;;;;;;;8.73;5.70;;;18.50;84.40;;;;;;10152092;28;20028;-54
2021/06/25 08:32:07;;;;;;;8.50;5.30;;;18.60;84.30;;;;;;10171799;28;20381;-55
2021/06/25 08:36:58;;;;;;;14.90;6.68;;;18.70;84.20;;;;;;10169486;28;20028;-52
2021/06/25 08:41:48;;;;;;;10.82;6.63;;;18.90;83.90;;;;;;10149238;28;20032;-53
2021/06/25 08:46:43;;;;;;;9.90;5.60;;;19.10;83.70;;;;;;10158419;28;20084;-54
2021/06/25 08:51:34;;;;;;;10.35;6.13;;;19.30;83.30;;;;;;10155051;28;20044;-52
2021/06/25 08:56:29;;;;;;;9.70;7.03;;;19.30;83.20;;;;;;10163703;28;20062;-57
2021/06/25 09:01:20;;;;;;;10.40;7.13;;;19.50;83.00;;;;;;10176527;28;20043;-51
2021/06/25 09:06:13;;;;;;;13.20;7.55;;;19.60;82.50;;;;;;10160919;28;20024;-55
2021/06/25 09:11:19;;;;;;;11.07;6.82;;;19.50;82.70;;;;;;10155286;28;20109;-55
2021/06/25 09:16:22;;;;;;;11.73;7.15;;;19.60;82.20;;;;;;10167199;28;20132;-56
2021/06/25 09:21:13;;;;;;;9.18;6.60;;;19.60;82.00;;;;;;10165148;28;20032;-54
2021/06/25 09:26:09;;;;;;;10.15;6.05;;;19.70;82.00;;;;;;10161587;28;20036;-56
2021/06/25 09:31:00;;;;;;;11.50;7.18;;;19.70;81.30;;;;;;10159912;28;20116;-49
2021/06/25 09:35:53;;;;;;;12.27;8.10;;;19.70;81.30;;;;;;10159178;28;20062;-55
2021/06/25 09:40:44;;;;;;;9.95;6.40;;;19.70;81.20;;;;;;10172150;28;20417;-52
2021/06/25 09:45:35;;;;;;;9.93;5.88;;;19.80;80.90;;;;;;10147048;28;20032;-56
2021/06/25 09:50:32;;;;;;;9.25;5.97;;;19.70;80.50;;;;;;10154865;28;20120;-52
2021/06/25 09:55:24;;;;;;;9.35;6.25;;;19.70;80.10;;;;;;10154267;28;20134;-56
2021/06/25 10:00:22;;;;;;;8.43;5.95;;;19.40;80.20;;;;;;10167963;28;20052;-55
2021/06/25 10:05:14;;;;;;;10.07;6.05;;;19.10;80.70;;;;;;10167901;28;20016;-52
2021/06/25 10:10:09;;;;;;;10.68;6.53;;;19.30;80.70;;;;;;10147995;28;20024;-50
2021/06/25 10:15:02;;;;;;;9.32;6.30;;;19.90;79.70;;;;;;10138279;28;20158;-52
2021/06/25 10:19:58;;;;;;;10.82;6.57;;;20.20;79.30;;;;;;10162490;28;22174;-56
2021/06/25 10:24:50;;;;;;;11.90;6.30;;;20.80;78.30;;;;;;10171641;28;20492;-54
2021/06/25 10:29:40;;;;;;;10.52;7.38;;;21.00;78.00;;;;;;10159543;28;20024;-55
2021/06/25 10:34:33;;;;;;;12.65;8.18;;;21.20;78.10;;;;;;10164329;28;20105;-55
2021/06/25 10:39:23;;;;;;;10.77;8.07;;;21.40;77.80;;;;;;10162676;28;20147;-55
2021/06/25 10:44:44;;;;;;;11.27;7.63;;;21.80;76.80;;;;;;10165945;28;20323;-56
2021/06/25 10:49:35;;;;;;;11.15;7.25;;;22.40;75.20;;;;;;10134799;28;20098;-54
2021/06/25 10:54:25;;;;;;;15.85;9.75;;;22.80;75.20;;;;;;10159703;28;20294;-55
2021/06/25 10:59:25;;;;;;;12.85;8.55;;;22.80;74.70;;;;;;10163864;28;20101;-52
2021/06/25 11:04:35;;;;;;;9.45;6.95;;;22.50;75.10;;;;;;10158094;28;20081;-53
2021/06/25 11:09:29;;;;;;;10.85;6.68;;;22.30;74.10;;;;;;10149566;28;20067;-57
2021/06/25 11:14:29;;;;;;;8.00;6.35;;;22.60;73.40;;;;;;10160825;28;20076;-57
2021/06/25 11:19:36;;;;;;;9.55;6.72;;;22.90;70.60;;;;;;10157092;28;20066;-59
2021/06/25 11:24:46;;;;;;;11.73;7.45;;;22.80;70.00;;;;;;10164163;28;20058;-55
2021/06/25 11:29:49;;;;;;;14.63;9.68;;;22.80;69.00;;;;;;10162565;28;20040;-57
2021/06/25 11:34:40;;;;;;;11.25;7.95;;;22.70;69.60;;;;;;10158759;28;20182;-52
2021/06/25 11:39:37;;;;;;;12.80;8.73;;;22.70;69.60;;;;;;10144813;28;20166;-57
2021/06/25 11:44:38;;;;;;;12.50;7.82;;;22.70;68.80;;;;;;10159063;28;20047;-54
2021/06/25 11:54:51;;;;;;;12.85;7.30;;;22.80;67.40;;;;;;10159904;28;20080;-56
2021/06/25 11:59:56;;;;;;;11.55;8.77;;;23.10;67.10;;;;;;10161222;28;20053;-56
2021/06/25 12:04:47;;;;;;;12.05;8.00;;;23.30;66.00;;;;;;10153473;28;20035;-59
2021/06/25 12:09:46;;;;;;;11.48;7.65;;;23.90;64.80;;;;;;10162408;28;20031;-57
2021/06/25 12:14:49;;;;;;;12.63;8.18;;;24.00;64.00;;;;;;10161971;28;20032;-58
2021/06/25 12:19:53;;;;;;;13.75;9.82;;;24.30;62.30;;;;;;10141884;28;20024;-57
2021/06/25 12:24:51;;;;;;;14.55;8.73;;;24.20;63.00;;;;;;10155383;28;20028;-56
2021/06/25 12:29:43;;;;;;;15.02;9.40;;;24.20;62.00;;;;;;10147448;28;20422;-56
2021/06/25 12:34:34;;;;;;;13.90;8.82;;;23.70;63.10;;;;;;10159196;28;20047;-54
2021/06/25 12:39:28;;;;;;;14.20;8.77;;;23.30;63.10;;;;;;10156897;28;20353;-50
2021/06/25 12:44:23;;;;;;;17.23;10.68;;;22.90;63.40;;;;;;10154437;28;20453;-53
2021/06/25 12:49:18;;;;;;;16.02;10.23;;;22.50;62.90;;;;;;10136870;28;20276;-48
2021/06/25 12:54:08;;;;;;;17.75;11.23;;;22.30;63.20;;;;;;10161423;28;20040;-60
2021/06/25 12:59:03;;;;;;;13.50;8.80;;;22.80;61.80;;;;;;10158628;28;20285;-54
2021/06/25 13:03:53;;;;;;;11.48;8.13;;;23.50;60.70;;;;;;10163010;28;20115;-52
2021/06/25 13:08:44;;;;;;;13.50;10.68;;;23.70;60.10;;;;;;10158369;28;20611;-53
2021/06/25 13:13:35;;;;;;;13.68;9.50;;;26.30;57.00;;;;;;10146101;28;20644;-59
2021/06/25 13:18:33;;;;;;;11.50;8.57;;;25.90;56.90;;;;;;10162571;28;20437;-56
2021/06/25 13:23:24;;;;;;;12.95;7.90;;;24.00;59.20;;;;;;10162575;28;20122;-55
2021/06/25 13:28:14;;;;;;;8.85;6.70;;;23.00;60.50;;;;;;10161326;28;20112;-56
2021/06/25 13:33:12;;;;;;;10.15;7.78;;;22.50;60.40;;;;;;10160196;28;20040;-55
2021/06/25 13:38:03;;;;;;;9.40;5.85;;;22.10;60.20;;;;;;10160359;28;20174;-56
2021/06/25 13:43:14;;;;;;;10.48;6.50;;;21.90;60.20;;;;;;10170882;28;20127;-55
2021/06/25 13:48:33;;;;;;;13.55;7.20;;;21.80;59.90;;;;;;10139877;28;20058;-54
2021/06/25 13:53:31;;;;;;;14.13;9.02;;;21.80;59.80;;;;;;10154786;28;20032;-55
2021/06/25 13:58:22;;;;;;;11.07;7.30;;;21.80;60.00;;;;;;10168050;28;20585;-57
2021/06/25 14:03:24;;;;;;;10.52;7.80;;;21.80;59.80;;;;;;10162355;28;20040;-57
2021/06/25 14:08:15;;;;;;;12.75;7.43;;;21.90;59.60;;;;;;10158101;28;20020;-58
2021/06/25 14:13:06;;;;;;;10.82;7.60;;;22.20;59.50;;;;;;10166681;28;20036;-54
2021/06/25 14:18:00;;;;;;;11.88;8.52;;;23.60;58.20;;;;;;10166872;28;20040;-49
2021/06/25 14:22:51;;;;;;;12.85;7.63;;;25.10;55.70;;;;;;10162182;28;20024;-62
2021/06/25 14:27:42;;;;;;;9.93;7.47;;;26.40;54.80;;;;;;10158681;28;20028;-55
2021/06/25 14:32:33;;;;;;;6.75;5.45;;;27.50;52.90;;;;;;10150323;28;20040;-55
2021/06/25 14:37:24;;;;;;;7.15;5.43;;;27.30;52.30;;;;;;10159210;28;20024;-54
2021/06/25 14:42:14;;;;;;;5.72;5.07;;;28.30;51.40;;;;;;10174301;28;20067;-58
2021/06/25 14:47:05;;;;;;;8.57;5.43;;;29.30;49.40;;;;;;10166575;28;20383;-53
2021/06/25 14:51:56;;;;;;;7.35;5.97;;;29.40;49.40;;;;;;10162556;28;20039;-56
2021/06/25 14:56:46;;;;;;;6.70;5.25;;;29.70;48.60;;;;;;10156095;28;20058;-57
2021/06/25 15:01:37;;;;;;;5.60;4.18;;;30.30;47.70;;;;;;10155947;28;20493;-57
2021/06/25 15:06:28;;;;;;;6.97;4.15;;;30.60;46.10;;;;;;10163404;28;20028;-58
2021/06/25 15:11:20;;;;;;;3.67;3.38;;;31.10;44.30;;;;;;10155983;28;20050;-59
2021/06/25 15:16:10;;;;;;;7.15;3.75;;;31.30;43.60;;;;;;10164813;28;20123;-55
2021/06/25 15:21:01;;;;;;;6.55;4.45;;;32.00;42.70;;;;;;10160008;28;20244;-60
2021/06/25 15:25:52;;;;;;;5.95;4.25;;;31.70;43.00;;;;;;10165677;28;20093;-56
2021/06/25 15:30:43;;;;;;;4.28;3.88;;;31.30;42.60;;;;;;10153903;28;20425;-57
2021/06/25 15:35:34;;;;;;;4.78;3.83;;;31.70;42.20;;;;;;10146090;28;20040;-58
2021/06/25 15:40:25;;;;;;;7.33;5.00;;;31.80;41.40;;;;;;10162657;28;20071;-58
2021/06/25 15:45:19;;;;;;;7.00;5.80;;;31.30;41.50;;;;;;10153503;28;20060;-59
2021/06/25 15:50:10;;;;;;;7.85;5.88;;;32.30;40.00;;;;;;10157996;28;20036;-57
2021/06/25 15:55:01;;;;;;;5.22;4.72;;;31.90;40.20;;;;;;10163804;28;20434;-58
2021/06/25 15:59:51;;;;;;;6.07;4.90;;;32.10;39.20;;;;;;10162066;28;20048;-58
2021/06/25 16:04:42;;;;;;;4.43;3.85;;;32.00;39.20;;;;;;10160036;28;20023;-58
2021/06/25 16:14:26;;;;;;;4.28;3.35;;;31.60;39.00;;;;;;10160679;28;20769;-57
2021/06/25 16:19:17;;;;;;;5.25;4.75;;;32.20;38.80;;;;;;10138450;28;20049;-57
2021/06/25 16:24:13;;;;;;;7.75;4.40;;;32.50;38.70;;;;;;10157234;28;20062;-57
2021/06/25 16:29:03;;;;;;;5.43;4.47;;;32.80;37.30;;;;;;10160027;28;20078;-56
2021/06/25 16:33:54;;;;;;;4.85;4.32;;;34.10;35.90;;;;;;10160150;28;20106;-56
2021/06/25 16:38:44;;;;;;;6.15;5.55;;;34.30;35.40;;;;;;10146776;28;20109;-57
2021/06/25 16:43:35;;;;;;;5.10;4.43;;;34.00;35.40;;;;;;10137563;28;20031;-59
2021/06/25 16:48:26;;;;;;;7.20;4.53;;;33.20;35.90;;;;;;10158115;28;20022;-55
2021/06/25 16:53:17;;;;;;;5.30;4.18;;;32.10;37.50;;;;;;10160394;28;20043;-58
2021/06/25 16:58:07;;;;;;;8.57;5.90;;;32.80;36.50;;;;;;10163633;28;20048;-58
2021/06/25 17:02:58;;;;;;;5.70;4.70;;;29.70;40.10;;;;;;10167718;28;20039;-58
2021/06/25 17:07:49;;;;;;;6.90;4.15;;;28.40;41.50;;;;;;10158471;28;20038;-55
2021/06/25 17:12:39;;;;;;;6.78;4.63;;;28.10;41.50;;;;;;10174586;28;20711;-58
2021/06/25 17:17:30;;;;;;;6.43;3.78;;;27.20;42.80;;;;;;10168584;28;20062;-58
2021/06/25 17:22:21;;;;;;;9.38;4.70;;;29.80;39.30;;;;;;10156767;28;20036;-56
2021/06/25 17:27:11;;;;;;;7.45;5.05;;;28.40;40.90;;;;;;10165659;28;20099;-57
2021/06/25 17:32:03;;;;;;;5.47;3.80;;;31.40;38.20;;;;;;10170902;28;20040;-58
2021/06/25 17:36:53;;;;;;;4.88;3.92;;;32.70;37.20;;;;;;10170345;28;20403;-57
2021/06/25 17:41:46;;;;;;;5.07;4.03;;;32.90;37.20;;;;;;10166455;28;20499;-57
2021/06/25 17:46:36;;;;;;;4.63;4.10;;;32.80;37.70;;;;;;10143227;28;20169;-54
2021/06/25 17:51:27;;;;;;;4.35;3.78;;;32.60;38.00;;;;;;10150888;28;20032;-55
2021/06/25 17:56:18;;;;;;;6.00;4.63;;;30.80;39.90;;;;;;10165527;28;20244;-56
2021/06/25 18:01:08;;;;;;;5.43;3.97;;;29.60;41.10;;;;;;10164801;28;20040;-58
2021/06/25 18:05:59;;;;;;;12.45;7.55;;;29.90;40.80;;;;;;10153206;28;20032;-55
2021/06/25 18:10:50;;;;;;;16.38;6.57;;;28.80;41.50;;;;;;10167091;28;20035;-57
2021/06/25 18:15:40;;;;;;;6.50;4.65;;;27.70;42.90;;;;;;10166354;28;20545;-55
2021/06/25 18:20:34;;;;;;;3.90;3.40;;;26.80;43.70;;;;;;10163458;28;20044;-52
2021/06/25 18:25:25;;;;;;;5.18;3.63;;;26.20;44.30;;;;;;10156344;28;20055;-56
2021/06/25 18:30:16;;;;;;;4.82;4.20;;;25.90;44.40;;;;;;10171436;28;20036;-57
2021/06/25 18:35:10;;;;;;;7.18;5.03;;;25.70;44.60;;;;;;10167949;28;20472;-55
2021/06/25 18:40:01;;;;;;;6.57;4.37;;;25.80;44.90;;;;;;10171471;28;20064;-53
2021/06/25 18:44:52;;;;;;;6.30;4.25;;;25.40;45.20;;;;;;10154769;28;20043;-56
2021/06/25 18:49:43;;;;;;;5.63;4.22;;;25.20;45.60;;;;;;10159760;28;20312;-55
2021/06/25 18:54:33;;;;;;;5.85;4.45;;;25.00;46.00;;;;;;10157389;28;20036;-53
2021/06/25 18:59:27;;;;;;;8.05;5.05;;;24.90;46.40;;;;;;10158556;28;20055;-52
2021/06/25 19:04:18;;;;;;;7.38;5.00;;;24.70;46.80;;;;;;10161696;28;20020;-54
2021/06/25 19:09:08;;;;;;;4.90;4.32;;;24.70;47.10;;;;;;10169396;28;20043;-58
2021/06/25 19:13:59;;;;;;;8.05;5.22;;;24.50;47.60;;;;;;10154939;28;20572;-49
2021/06/25 19:18:50;;;;;;;7.55;5.38;;;24.30;48.10;;;;;;10151914;28;20038;-50
2021/06/25 19:23:41;;;;;;;8.05;5.90;;;24.20;48.50;;;;;;10160946;28;20028;-53
2021/06/25 19:28:31;;;;;;;8.48;5.15;;;24.00;48.80;;;;;;10151666;28;20627;-53
2021/06/25 19:33:22;;;;;;;12.25;5.50;;;23.90;49.30;;;;;;10147881;28;20041;-57
2021/06/25 19:38:13;;;;;;;11.10;7.32;;;23.80;49.70;;;;;;10152637;28;20028;-55
2021/06/25 19:43:05;;;;;;;7.38;5.43;;;23.60;49.70;;;;;;10146716;28;20203;-58
2021/06/25 19:47:56;;;;;;;8.93;5.82;;;23.40;50.40;;;;;;10159378;28;20025;-57
2021/06/25 19:52:46;;;;;;;7.68;5.07;;;23.20;50.70;;;;;;10145602;28;20056;-57
2021/06/25 19:57:37;;;;;;;8.82;4.95;;;23.10;51.10;;;;;;10144576;28;20039;-57
2021/06/25 20:02:28;;;;;;;7.57;4.95;;;23.00;51.60;;;;;;10152299;28;20230;-56
2021/06/25 20:07:18;;;;;;;7.30;4.95;;;23.00;51.90;;;;;;10147137;28;20063;-55
2021/06/25 20:12:12;;;;;;;10.85;7.05;;;22.90;52.00;;;;;;10140205;28;20048;-52
2021/06/25 20:17:03;;;;;;;9.82;5.75;;;22.90;52.40;;;;;;10142779;28;20045;-53
2021/06/25 20:21:54;;;;;;;11.50;7.45;;;22.80;52.50;;;;;;10147449;28;20032;-53
2021/06/25 20:26:45;;;;;;;9.48;7.30;;;22.70;52.90;;;;;;10157528;28;20666;-52
2021/06/25 20:31:36;;;;;;;12.77;7.85;;;22.60;53.30;;;;;;10155670;28;20994;-51
2021/06/25 20:36:27;;;;;;;8.95;6.30;;;22.60;53.70;;;;;;10152729;28;20759;-52
2021/06/25 20:41:18;;;;;;;9.38;5.57;;;22.50;53.90;;;;;;10155969;28;20024;-56
2021/06/25 20:46:09;;;;;;;8.18;5.40;;;22.30;54.40;;;;;;10165618;28;20039;-52
2021/06/25 20:51:01;;;;;;;11.75;6.65;;;22.20;54.80;;;;;;10162228;28;20039;-54
2021/06/25 20:55:52;;;;;;;8.68;5.65;;;22.20;55.10;;;;;;10150767;28;20044;-54
2021/06/25 21:00:42;;;;;;;11.07;6.55;;;22.30;55.10;;;;;;10145962;28;20415;-52
2021/06/25 21:05:33;;;;;;;9.90;6.40;;;22.30;55.20;;;;;;10146691;28;20036;-56
2021/06/25 21:10:23;;;;;;;8.50;5.68;;;22.30;55.40;;;;;;10158207;28;20577;-49
2021/06/25 21:15:15;;;;;;;9.70;6.07;;;22.20;55.60;;;;;;10155411;28;20046;-53
2021/06/25 21:20:06;;;;;;;8.40;5.80;;;22.30;55.70;;;;;;10152180;28;20525;-53
2021/06/25 21:24:56;;;;;;;10.90;6.30;;;22.20;55.70;;;;;;10150930;28;20485;-51
2021/06/25 21:29:48;;;;;;;7.75;6.03;;;22.20;55.90;;;;;;10159171;28;20024;-50
2021/06/25 21:34:38;;;;;;;9.40;5.88;;;22.20;56.10;;;;;;10155953;28;20465;-51
2021/06/25 21:39:30;;;;;;;7.85;6.10;;;22.20;56.40;;;;;;10154650;28;20322;-52
2021/06/25 21:44:21;;;;;;;10.07;6.82;;;22.10;56.70;;;;;;10156587;28;20068;-56
2021/06/25 21:49:11;;;;;;;9.50;5.95;;;22.10;56.70;;;;;;10198584;28;20459;-53
2021/06/25 21:54:02;;;;;;;11.48;6.47;;;22.20;56.70;;;;;;10162772;28;20300;-52
2021/06/25 21:58:53;;;;;;;9.30;5.82;;;22.10;56.90;;;;;;10158619;28;20631;-52
2021/06/25 22:03:44;;;;;;;8.48;5.78;;;22.00;57.20;;;;;;10151380;28;20067;-53
2021/06/25 22:08:35;;;;;;;10.07;6.80;;;21.80;57.50;;;;;;10165912;28;20031;-53
2021/06/25 22:13:25;;;;;;;9.95;6.65;;;21.60;58.00;;;;;;10169116;28;20043;-54
2021/06/25 22:18:16;;;;;;;14.00;7.28;;;21.40;58.90;;;;;;10159174;28;20055;-54
2021/06/25 22:23:07;;;;;;;10.57;6.40;;;21.40;59.10;;;;;;10155610;28;20391;-56
2021/06/25 22:27:58;;;;;;;13.48;7.35;;;21.40;59.40;;;;;;10148282;28;20133;-54
2021/06/25 22:32:49;;;;;;;9.32;6.72;;;21.50;59.40;;;;;;10174803;28;20601;-52
2021/06/25 22:37:40;;;;;;;10.80;7.00;;;21.40;59.70;;;;;;10158746;28;20035;-53
2021/06/25 22:42:31;;;;;;;10.20;6.47;;;21.40;60.00;;;;;;10154121;28;20112;-53
2021/06/25 22:47:21;;;;;;;10.63;6.20;;;21.50;60.10;;;;;;10154245;28;20058;-53
2021/06/25 22:52:12;;;;;;;11.57;6.63;;;21.30;60.40;;;;;;10161669;28;20039;-52
2021/06/25 22:57:03;;;;;;;10.65;6.82;;;21.10;61.10;;;;;;10159455;28;20067;-51
2021/06/25 23:01:54;;;;;;;10.13;5.90;;;21.10;61.40;;;;;;10160912;28;20347;-54
2021/06/25 23:06:45;;;;;;;8.45;5.22;;;21.10;61.50;;;;;;10153597;28;20036;-53
2021/06/25 23:11:36;;;;;;;9.63;6.10;;;21.10;61.60;;;;;;10152555;28;20035;-53
2021/06/25 23:16:26;;;;;;;9.43;6.55;;;21.00;61.50;;;;;;10162103;28;20036;-54
2021/06/25 23:21:17;;;;;;;11.45;6.60;;;20.90;61.90;;;;;;10155782;28;20029;-56
2021/06/25 23:26:08;;;;;;;11.55;5.75;;;21.00;62.00;;;;;;10168368;28;20277;-52
2021/06/25 23:30:58;;;;;;;9.43;6.32;;;21.00;62.10;;;;;;10145805;28;20252;-56
2021/06/25 23:35:49;;;;;;;16.25;10.32;;;20.90;62.20;;;;;;10161187;28;20055;-52
2021/06/25 23:40:40;;;;;;;28.27;12.07;;;20.90;62.70;;;;;;10141210;28;20374;-52
2021/06/25 23:45:31;;;;;;;19.00;11.10;;;20.90;63.00;;;;;;10152203;28;20162;-53
2021/06/25 23:50:21;;;;;;;22.92;10.95;;;20.90;63.10;;;;;;10146183;28;20076;-53
2021/06/25 23:55:12;;;;;;;22.77;10.40;;;20.90;63.30;;;;;;10147828;28;20530;-53
